createdAt,value
2017-05-05T00:00:05.874Z,51.64
2017-05-05T00:01:16.140Z,50.79
2017-05-05T00:02:26.393Z,50.51
2017-05-05T00:03:36.336Z,51.26
2017-05-05T00:04:46.596Z,51.83
2017-05-05T00:05:56.857Z,52.4
2017-05-05T00:07:07.118Z,51.83
2017-05-05T00:08:17.067Z,51.07
2017-05-05T00:09:27.327Z,51.55
2017-05-05T00:10:37.591Z,50.79
2017-05-05T00:11:47.856Z,49.65
2017-05-05T00:12:57.809Z,50.31
2017-05-05T00:14:07.440Z,49.74
2017-05-05T00:15:17.694Z,50.22
2017-05-05T00:16:27.954Z,49.46
2017-05-05T00:17:38.214Z,50.12
2017-05-05T00:18:48.473Z,49.65
2017-05-05T00:19:58.748Z,51.26
2017-05-05T00:21:08.691Z,51.55
2017-05-05T00:22:18.948Z,50.79
2017-05-05T00:23:28.901Z,50.79
2017-05-05T00:24:38.853Z,51.74
2017-05-05T00:25:49.121Z,51.26
2017-05-05T00:26:59.063Z,50.7
2017-05-05T00:28:09.323Z,49.65
2017-05-05T00:29:19.583Z,49.46
2017-05-05T00:30:29.842Z,49.84
2017-05-05T00:31:40.114Z,49.55
2017-05-05T00:32:50.365Z,49.84
2017-05-05T00:34:00.637Z,50.03
2017-05-05T00:35:10.599Z,50.41
2017-05-05T00:36:20.861Z,50.98
2017-05-05T00:37:31.126Z,51.55
2017-05-05T00:38:41.392Z,51.83
2017-05-05T00:39:51.656Z,51.36
2017-05-05T00:41:01.919Z,51.45
2017-05-05T00:42:12.183Z,51.93
2017-05-05T00:43:22.465Z,51.93
2017-05-05T00:44:32.418Z,52.5
2017-05-05T00:45:42.363Z,50.79
2017-05-05T00:46:52.628Z,50.89
2017-05-05T00:48:02.893Z,52.31
2017-05-05T00:49:12.845Z,51.74
2017-05-05T00:50:22.787Z,51.55
2017-05-05T00:51:33.047Z,50.91
2017-05-05T00:52:43.307Z,50.62
2017-05-05T00:53:53.572Z,50.53
2017-05-05T00:55:03.832Z,50.72
2017-05-05T00:56:13.775Z,50.91
2017-05-05T00:57:24.045Z,50.72
2017-05-05T00:58:33.989Z,49.49
2017-05-05T00:59:44.257Z,49.29
2017-05-05T01:00:54.512Z,48.82
2017-05-05T01:02:04.774Z,46.73
2017-05-05T01:03:14.722Z,47.77
2017-05-05T01:04:24.979Z,47.2
2017-05-05T01:05:34.917Z,46.54
2017-05-05T01:06:45.186Z,46.25
2017-05-05T01:07:55.475Z,45.59
2017-05-05T01:09:05.426Z,44.83
2017-05-05T01:10:15.688Z,45.12
2017-05-05T01:11:25.950Z,45.12
2017-05-05T01:12:36.204Z,46.19
2017-05-05T01:13:46.149Z,47.97
2017-05-05T01:14:56.410Z,48.94
2017-05-05T01:16:06.669Z,48.27
2017-05-05T01:17:16.935Z,48.18
2017-05-05T01:18:26.891Z,46.66
2017-05-05T01:19:37.161Z,44.67
2017-05-05T01:20:47.419Z,45.61
2017-05-05T01:21:57.677Z,45.14
2017-05-05T01:23:07.932Z,43.24
2017-05-05T01:24:18.196Z,42.95
2017-05-05T01:25:28.461Z,42.1
2017-05-05T01:26:38.715Z,42.1
2017-05-05T01:27:48.664Z,41.43
2017-05-05T01:28:58.931Z,40.39
2017-05-05T01:30:08.566Z,40.03
2017-05-05T01:31:18.519Z,39.74
2017-05-05T01:32:28.471Z,38.79
2017-05-05T01:33:38.734Z,38.51
2017-05-05T01:34:48.684Z,39.07
2017-05-05T01:35:58.947Z,39.93
2017-05-05T01:37:09.214Z,40.22
2017-05-05T01:38:19.477Z,44.4
2017-05-05T01:39:29.109Z,46.4
2017-05-05T01:40:39.370Z,47.63
2017-05-05T01:41:49.625Z,47.63
2017-05-05T01:42:59.888Z,47.92
2017-05-05T01:44:10.149Z,48.01
2017-05-05T01:45:20.414Z,48.68
2017-05-05T01:46:30.667Z,47.16
2017-05-05T01:47:40.932Z,47.82
2017-05-05T01:48:51.194Z,48.87
2017-05-05T01:50:01.464Z,48.01
2017-05-05T01:51:11.408Z,48.58
2017-05-05T01:52:21.354Z,48.96
2017-05-05T01:53:31.298Z,48.3
2017-05-05T01:54:41.562Z,48.56
2017-05-05T01:55:51.828Z,45.23
2017-05-05T01:57:02.089Z,46.28
2017-05-05T01:58:12.039Z,47.89
2017-05-05T01:59:21.999Z,46.28
2017-05-05T02:00:32.261Z,43.62
2017-05-05T02:01:42.535Z,42
2017-05-05T02:02:52.484Z,41.07
2017-05-05T02:04:02.742Z,41.17
2017-05-05T02:05:13.000Z,41.55
2017-05-05T02:06:23.264Z,42.88
2017-05-05T02:07:33.526Z,43.26
2017-05-05T02:08:43.793Z,45.07
2017-05-05T02:09:54.058Z,46.3
2017-05-05T02:11:04.327Z,46.3
2017-05-05T02:12:14.272Z,44.87
2017-05-05T02:13:24.542Z,44.59
2017-05-05T02:14:34.548Z,45.26
2017-05-05T02:15:44.804Z,45.35
2017-05-05T02:16:55.071Z,44.59
2017-05-05T02:18:05.328Z,43.83
2017-05-05T02:19:15.642Z,43.93
2017-05-05T02:20:25.906Z,44.02
2017-05-05T02:21:36.162Z,45.26
2017-05-05T02:22:46.419Z,44.78
2017-05-05T02:23:56.679Z,43.83
2017-05-05T02:25:06.631Z,43.35
2017-05-05T02:26:16.585Z,42.69
2017-05-05T02:27:26.220Z,42.31
2017-05-05T02:28:36.485Z,42.61
2017-05-05T02:29:46.754Z,44.04
2017-05-05T02:30:57.011Z,44.71
2017-05-05T02:32:07.273Z,43.47
2017-05-05T02:33:17.222Z,42.9
2017-05-05T02:34:27.488Z,42.52
2017-05-05T02:35:37.755Z,42.8
2017-05-05T02:36:48.019Z,43.28
2017-05-05T02:37:58.279Z,42.8
2017-05-05T02:39:08.541Z,42.61
2017-05-05T02:40:18.810Z,42.24
2017-05-05T02:41:29.075Z,42.25
2017-05-05T02:42:39.025Z,41.88
2017-05-05T02:43:49.290Z,42.61
2017-05-05T02:44:59.242Z,43.19
2017-05-05T02:46:08.875Z,42.44
2017-05-05T02:47:19.145Z,42.07
2017-05-05T02:48:29.406Z,41.88
2017-05-05T02:49:39.668Z,41.78
2017-05-05T02:50:49.932Z,41.88
2017-05-05T02:51:59.874Z,41.49
2017-05-05T02:53:10.137Z,40.83
2017-05-05T02:54:20.395Z,40.64
2017-05-05T02:55:30.650Z,40.73
2017-05-05T02:56:40.916Z,40.26
2017-05-05T02:57:50.870Z,40.16
2017-05-05T02:59:01.143Z,39.69
2017-05-05T03:00:11.095Z,39.69
2017-05-05T03:01:20.733Z,40.45
2017-05-05T03:02:30.682Z,40.35
2017-05-05T03:03:40.950Z,41.3
2017-05-05T03:04:51.208Z,41.69
2017-05-05T03:06:01.471Z,41.3
2017-05-05T03:07:11.739Z,41.78
2017-05-05T03:08:22.003Z,42.44
2017-05-05T03:09:31.643Z,41.88
2017-05-05T03:10:41.902Z,43.02
2017-05-05T03:11:52.171Z,46.06
2017-05-05T03:13:02.429Z,44.64
2017-05-05T03:14:12.693Z,43.4
2017-05-05T03:15:22.953Z,43.21
2017-05-05T03:16:32.900Z,43.11
2017-05-05T03:17:43.164Z,43.87
2017-05-05T03:18:53.433Z,43.4
2017-05-05T03:20:03.067Z,43.02
2017-05-05T03:21:13.331Z,43.11
2017-05-05T03:22:23.594Z,42.83
2017-05-05T03:23:33.549Z,43.68
2017-05-05T03:24:43.811Z,44.26
2017-05-05T03:25:54.074Z,43.02
2017-05-05T03:27:04.338Z,43.02
2017-05-05T03:28:14.604Z,42.73
2017-05-05T03:29:24.238Z,42.73
2017-05-05T03:30:34.503Z,43.87
2017-05-05T03:31:44.769Z,44.92
2017-05-05T03:32:55.043Z,45.97
2017-05-05T03:34:05.307Z,46.06
2017-05-05T03:35:14.943Z,45.87
2017-05-05T03:36:24.892Z,46.25
2017-05-05T03:37:35.160Z,44.73
2017-05-05T03:38:45.430Z,43.68
2017-05-05T03:39:55.690Z,43.21
2017-05-05T03:41:05.329Z,43.02
2017-05-05T03:42:15.279Z,42.83
2017-05-05T03:43:25.223Z,42.54
2017-05-05T03:44:35.482Z,42.83
2017-05-05T03:45:45.444Z,42.16
2017-05-05T03:46:55.701Z,42.25
2017-05-05T03:48:05.649Z,43.21
2017-05-05T03:49:14.968Z,42.73
2017-05-05T03:50:25.236Z,41.69
2017-05-05T03:51:35.498Z,40.64
2017-05-05T03:52:45.767Z,40.26
2017-05-05T03:53:56.032Z,39.69
2017-05-05T03:55:05.993Z,42.73
2017-05-05T03:56:15.947Z,47.58
2017-05-05T03:57:26.217Z,49.68
2017-05-05T03:58:36.477Z,50.63
2017-05-05T03:59:46.739Z,50.82
2017-05-05T04:00:57.001Z,50.23
2017-05-05T04:02:07.261Z,50.99
2017-05-05T04:03:17.546Z,51.18
2017-05-05T04:04:27.494Z,51.75
2017-05-05T04:05:37.443Z,52.22
2017-05-05T04:06:47.388Z,52.41
2017-05-05T04:07:57.646Z,52.03
2017-05-05T04:09:07.902Z,52.61
2017-05-05T04:10:17.537Z,53.46
2017-05-05T04:11:27.797Z,53.46
2017-05-05T04:12:38.058Z,53.17
2017-05-05T04:13:48.320Z,53.36
2017-05-05T04:14:58.582Z,52.61
2017-05-05T04:16:08.221Z,53.17
2017-05-05T04:17:18.492Z,52.76
2017-05-05T04:18:28.755Z,51.72
2017-05-05T04:19:39.019Z,50.58
2017-05-05T04:20:49.284Z,50.87
2017-05-05T04:21:59.546Z,51.46
2017-05-05T04:23:09.811Z,53.17
2017-05-05T04:24:20.100Z,52.41
2017-05-05T04:25:30.367Z,52.51
2017-05-05T04:26:40.658Z,52.89
2017-05-05T04:27:50.915Z,52.32
2017-05-05T04:29:00.864Z,51.93
2017-05-05T04:30:10.815Z,52.03
2017-05-05T04:31:21.072Z,51.75
2017-05-05T04:32:31.328Z,51.46
2017-05-05T04:33:41.278Z,51.93
2017-05-05T04:34:51.536Z,51.84
2017-05-05T04:36:01.800Z,52.13
2017-05-05T04:37:11.748Z,52.34
2017-05-05T04:38:22.014Z,52.06
2017-05-05T04:39:32.276Z,52.34
2017-05-05T04:40:42.533Z,52.82
2017-05-05T04:41:52.791Z,52.8
2017-05-05T04:43:02.746Z,52.32
2017-05-05T04:44:12.380Z,52.25
2017-05-05T04:45:22.643Z,52.03
2017-05-05T04:46:32.904Z,52.32
2017-05-05T04:47:43.165Z,52.03
2017-05-05T04:48:53.439Z,52.13
2017-05-05T04:50:03.706Z,51.37
2017-05-05T04:51:13.964Z,51.18
2017-05-05T04:52:24.225Z,51.27
2017-05-05T04:53:34.495Z,51.46
2017-05-05T04:54:44.763Z,52.22
2017-05-05T04:55:55.043Z,51.65
2017-05-05T04:57:05.301Z,50.6
2017-05-05T04:58:14.943Z,51.78
2017-05-05T04:59:24.891Z,51.65
2017-05-05T05:00:34.849Z,51.84
2017-05-05T05:01:45.120Z,51.01
2017-05-05T05:02:55.411Z,50.92
2017-05-05T05:04:05.672Z,50.25
2017-05-05T05:05:15.631Z,50.44
2017-05-05T05:06:25.578Z,50.44
2017-05-05T05:07:35.845Z,50.54
2017-05-05T05:08:46.108Z,50.92
2017-05-05T05:09:56.375Z,50.25
2017-05-05T05:11:06.631Z,46.54
2017-05-05T05:12:16.578Z,47.02
2017-05-05T05:13:26.838Z,47.97
2017-05-05T05:14:37.399Z,46.25
2017-05-05T05:15:47.663Z,44.73
2017-05-05T05:16:57.921Z,46.15
2017-05-05T05:18:08.183Z,46.92
2017-05-05T05:19:18.452Z,49.23
2017-05-05T05:20:28.723Z,49.8
2017-05-05T05:21:38.988Z,49.9
2017-05-05T05:22:49.255Z,49.99
2017-05-05T05:23:59.548Z,49.71
2017-05-05T05:25:09.835Z,50.18
2017-05-05T05:26:20.343Z,49.61
2017-05-05T05:27:30.617Z,49.42
2017-05-05T05:28:40.569Z,49.61
2017-05-05T05:29:50.877Z,49.9
2017-05-05T05:31:01.140Z,49.9
2017-05-05T05:32:13.402Z,50.09
2017-05-05T05:33:23.669Z,50.27
2017-05-05T05:34:33.957Z,50.27
2017-05-05T05:35:44.221Z,50.66
2017-05-05T05:36:53.848Z,50.75
2017-05-05T05:38:04.106Z,49.8
2017-05-05T05:39:14.365Z,49.61
2017-05-05T05:40:24.313Z,49.9
2017-05-05T05:41:34.272Z,48.37
2017-05-05T05:42:44.530Z,48.27
2017-05-05T05:43:54.792Z,47.52
2017-05-05T05:45:04.742Z,47.99
2017-05-05T05:46:15.001Z,47.82
2017-05-05T05:47:25.269Z,47.92
2017-05-05T05:48:35.533Z,47.73
2017-05-05T05:49:45.796Z,48.21
2017-05-05T05:50:56.068Z,47.82
2017-05-05T05:52:05.701Z,47.63
2017-05-05T05:53:15.654Z,46.49
2017-05-05T05:54:25.919Z,46.3
2017-05-05T05:55:35.874Z,46.49
2017-05-05T05:56:46.136Z,46.3
2017-05-05T05:57:56.422Z,46.13
2017-05-05T05:59:06.697Z,44.89
2017-05-05T06:00:16.960Z,45.08
2017-05-05T06:01:27.232Z,45.08
2017-05-05T06:02:37.500Z,43.65
2017-05-05T06:03:47.762Z,44.23
2017-05-05T06:04:58.026Z,44.6
2017-05-05T06:06:07.972Z,43.84
2017-05-05T06:07:17.923Z,43.94
2017-05-05T06:08:28.189Z,45.08
2017-05-05T06:09:38.453Z,43.84
2017-05-05T06:10:48.399Z,43.75
2017-05-05T06:11:58.656Z,44.13
2017-05-05T06:13:08.620Z,43.37
2017-05-05T06:14:18.885Z,43.46
2017-05-05T06:15:29.147Z,43.37
2017-05-05T06:16:39.416Z,42.8
2017-05-05T06:17:49.687Z,41.75
2017-05-05T06:18:59.648Z,41.65
2017-05-05T06:20:09.911Z,42.41
2017-05-05T06:21:19.863Z,42.41
2017-05-05T06:22:29.822Z,43.08
2017-05-05T06:23:40.083Z,43.18
2017-05-05T06:24:50.348Z,43.08
2017-05-05T06:26:00.299Z,43.58
2017-05-05T06:27:10.247Z,44.15
2017-05-05T06:28:20.509Z,44.06
2017-05-05T06:29:30.772Z,43.58
2017-05-05T06:30:40.714Z,43.29
2017-05-05T06:31:50.977Z,43.29
2017-05-05T06:33:01.241Z,43.96
2017-05-05T06:34:11.510Z,43.87
2017-05-05T06:35:21.800Z,44.82
2017-05-05T06:36:32.063Z,45.1
2017-05-05T06:37:42.322Z,44.15
2017-05-05T06:38:52.587Z,45.97
2017-05-05T06:40:02.849Z,46.06
2017-05-05T06:41:12.804Z,45.78
2017-05-05T06:42:23.070Z,46.92
2017-05-05T06:43:33.334Z,46.73
2017-05-05T06:44:43.292Z,46.63
2017-05-05T06:45:53.611Z,46.54
2017-05-05T06:47:03.874Z,47.3
2017-05-05T06:48:14.167Z,48.44
2017-05-05T06:49:24.132Z,48.35
2017-05-05T06:50:34.079Z,47.97
2017-05-05T06:51:44.340Z,47.97
2017-05-05T06:52:54.598Z,47.97
2017-05-05T06:54:04.547Z,47.87
2017-05-05T06:55:14.507Z,48.66
2017-05-05T06:56:24.772Z,49.23
2017-05-05T06:57:35.043Z,48.16
2017-05-05T06:58:45.303Z,48.08
2017-05-05T06:59:55.579Z,47.99
2017-05-05T07:01:05.840Z,47.8
2017-05-05T07:02:16.132Z,47.03
2017-05-05T07:03:26.418Z,46.66
2017-05-05T07:04:36.690Z,46.75
2017-05-05T07:05:46.953Z,49.04
2017-05-05T07:06:56.901Z,47.99
2017-05-05T07:08:06.851Z,48.37
2017-05-05T07:09:17.113Z,48.47
2017-05-05T07:10:27.061Z,48.94
2017-05-05T07:11:37.328Z,48.47
2017-05-05T07:12:47.592Z,49.13
2017-05-05T07:13:57.855Z,48.18
2017-05-05T07:15:07.804Z,47.99
2017-05-05T07:16:17.459Z,46.94
2017-05-05T07:17:27.720Z,46.56
2017-05-05T07:18:37.977Z,46.66
2017-05-05T07:19:47.932Z,46.58
2017-05-05T07:20:58.197Z,47.63
2017-05-05T07:22:08.471Z,47.92
2017-05-05T07:23:18.416Z,48.88
2017-05-05T07:24:28.689Z,48.59
2017-05-05T07:25:38.960Z,49.9
2017-05-05T07:26:49.235Z,49.04
2017-05-05T07:27:59.204Z,48.78
2017-05-05T07:29:09.174Z,48.68
2017-05-05T07:30:19.441Z,48.59
2017-05-05T07:31:29.080Z,48.11
2017-05-05T07:32:39.345Z,48.21
2017-05-05T07:33:49.616Z,49.16
2017-05-05T07:34:59.886Z,48.21
2017-05-05T07:36:09.526Z,48.49
2017-05-05T07:37:19.483Z,48.3
2017-05-05T07:38:29.441Z,48.3
2017-05-05T07:39:39.718Z,48.3
2017-05-05T07:40:49.982Z,47.92
2017-05-05T07:42:00.242Z,48.68
2017-05-05T07:43:09.873Z,47.92
2017-05-05T07:44:19.836Z,48.61
2017-05-05T07:45:29.782Z,47.66
2017-05-05T07:46:40.043Z,47.47
2017-05-05T07:47:50.303Z,48.42
2017-05-05T07:49:00.254Z,48.42
2017-05-05T07:50:09.887Z,48.42
2017-05-05T07:51:20.151Z,48.04
2017-05-05T07:52:29.785Z,47.66
2017-05-05T07:53:40.049Z,47.85
2017-05-05T07:54:50.313Z,47.75
2017-05-05T07:56:00.448Z,47.66
2017-05-05T07:57:10.081Z,47.66
2017-05-05T07:58:20.030Z,48.04
2017-05-05T07:59:29.977Z,47.75
2017-05-05T08:00:40.240Z,47.66
2017-05-05T08:01:50.508Z,48.13
2017-05-05T08:03:00.789Z,48.33
2017-05-05T08:04:11.060Z,48.64
2017-05-05T08:05:21.323Z,48.64
2017-05-05T08:06:31.594Z,48.25
2017-05-05T08:07:41.861Z,49.02
2017-05-05T08:08:52.144Z,48.83
2017-05-05T08:10:01.469Z,48.35
2017-05-05T08:11:11.734Z,48.93
2017-05-05T08:12:21.682Z,48.35
2017-05-05T08:13:31.951Z,48.25
2017-05-05T08:14:42.224Z,48.54
2017-05-05T08:15:52.513Z,48.93
2017-05-05T08:17:02.463Z,48.25
2017-05-05T08:18:12.412Z,48.35
2017-05-05T08:19:22.363Z,48.93
2017-05-05T08:20:32.626Z,48.85
2017-05-05T08:21:42.916Z,49.14
2017-05-05T08:22:53.179Z,49.23
2017-05-05T08:24:03.442Z,49.04
2017-05-05T08:25:13.707Z,48.09
2017-05-05T08:26:23.971Z,48.95
2017-05-05T08:27:33.923Z,48.28
2017-05-05T08:28:44.192Z,48.57
2017-05-05T08:29:54.151Z,49.33
2017-05-05T08:31:04.419Z,48.95
2017-05-05T08:32:14.373Z,48.95
2017-05-05T08:33:24.633Z,49.43
2017-05-05T08:34:34.273Z,49.04
2017-05-05T08:35:44.546Z,48.75
2017-05-05T08:36:54.812Z,49.8
2017-05-05T08:38:05.068Z,49.8
2017-05-05T08:39:14.705Z,50
2017-05-05T08:40:24.978Z,50.57
2017-05-05T08:41:35.272Z,50.48
2017-05-05T08:42:45.537Z,49.9
2017-05-05T08:43:55.487Z,50.57
2017-05-05T08:45:05.748Z,50.09
2017-05-05T08:46:15.382Z,50.29
2017-05-05T08:47:25.018Z,51.24
2017-05-05T08:48:35.286Z,51.53
2017-05-05T08:49:45.243Z,50.67
2017-05-05T08:50:55.509Z,51.15
2017-05-05T08:52:05.456Z,50.86
2017-05-05T08:53:15.412Z,51.05
2017-05-05T08:54:25.367Z,50.6
2017-05-05T08:55:35.634Z,50.7
2017-05-05T08:56:45.901Z,50.41
2017-05-05T08:57:56.177Z,50.6
2017-05-05T08:59:05.511Z,50.02
2017-05-05T09:00:15.148Z,50.12
2017-05-05T09:01:25.419Z,49.93
2017-05-05T09:02:35.690Z,51.27
2017-05-05T09:03:45.955Z,51.07
2017-05-05T09:04:56.223Z,51.17
2017-05-05T09:06:06.186Z,51.17
2017-05-05T09:07:16.139Z,51.27
2017-05-05T09:08:26.401Z,50.79
2017-05-05T09:09:36.663Z,51.17
2017-05-05T09:10:46.926Z,50.79
2017-05-05T09:11:57.199Z,50.12
2017-05-05T09:13:07.475Z,50.05
2017-05-05T09:14:17.433Z,50.34
2017-05-05T09:15:27.384Z,49.76
2017-05-05T09:16:37.335Z,50.05
2017-05-05T09:17:47.605Z,49.66
2017-05-05T09:18:57.558Z,49.4
2017-05-05T09:20:07.829Z,49.4
2017-05-05T09:21:18.095Z,49.5
2017-05-05T09:22:27.733Z,49.4
2017-05-05T09:23:38.025Z,49.98
2017-05-05T09:24:48.300Z,49.98
2017-05-05T09:25:58.569Z,49.79
2017-05-05T09:27:08.530Z,49.62
2017-05-05T09:28:18.808Z,48.28
2017-05-05T09:29:29.079Z,47.99
2017-05-05T09:30:39.344Z,47.42
2017-05-05T09:31:49.607Z,47.92
2017-05-05T09:32:59.870Z,47.92
2017-05-05T09:34:10.143Z,48.47
2017-05-05T09:35:20.102Z,50.2
2017-05-05T09:36:30.077Z,50.2
2017-05-05T09:37:40.343Z,50.26
2017-05-05T09:38:50.609Z,50.17
2017-05-05T09:40:00.880Z,50.46
2017-05-05T09:41:10.833Z,51.13
2017-05-05T09:42:20.474Z,50.07
2017-05-05T09:43:30.750Z,49.69
2017-05-05T09:44:41.041Z,49.81
2017-05-05T09:45:51.302Z,49.52
2017-05-05T09:47:01.569Z,49.52
2017-05-05T09:48:11.837Z,49.24
2017-05-05T09:49:22.101Z,49.33
2017-05-05T09:50:32.054Z,49.33
2017-05-05T09:51:42.316Z,49.24
2017-05-05T09:52:52.579Z,49.24
2017-05-05T09:54:02.225Z,49.33
2017-05-05T09:55:12.509Z,49.24
2017-05-05T09:56:22.772Z,49.24
2017-05-05T09:57:32.725Z,49.52
2017-05-05T09:58:42.988Z,50
2017-05-05T09:59:53.257Z,49.62
2017-05-05T10:01:03.530Z,50.1
2017-05-05T10:02:13.488Z,50.1
2017-05-05T10:03:23.756Z,49.52
2017-05-05T10:04:34.027Z,49.33
2017-05-05T10:05:44.295Z,49.26
2017-05-05T10:06:54.244Z,49.36
2017-05-05T10:08:04.511Z,48.97
2017-05-05T10:09:14.776Z,49.26
2017-05-05T10:10:25.046Z,48.49
2017-05-05T10:11:34.377Z,48.59
2017-05-05T10:12:44.656Z,48.52
2017-05-05T10:13:54.607Z,48.71
2017-05-05T10:15:04.880Z,49.29
2017-05-05T10:16:14.835Z,48.33
2017-05-05T10:17:24.789Z,48.9
2017-05-05T10:18:34.757Z,48.52
2017-05-05T10:19:45.027Z,48.23
2017-05-05T10:20:55.048Z,48.13
2017-05-05T10:22:05.016Z,47.75
2017-05-05T10:23:14.652Z,48.13
2017-05-05T10:24:24.920Z,47.87
2017-05-05T10:25:35.186Z,47.68
2017-05-05T10:26:45.450Z,47.3
2017-05-05T10:27:55.724Z,46.91
2017-05-05T10:29:05.995Z,46.81
2017-05-05T10:30:15.965Z,47.3
2017-05-05T10:31:25.950Z,46.91
2017-05-05T10:32:36.220Z,46.62
2017-05-05T10:33:46.182Z,46.34
2017-05-05T10:34:56.455Z,46.81
2017-05-05T10:36:06.412Z,46.84
2017-05-05T10:37:16.679Z,46.36
2017-05-05T10:38:26.637Z,46.53
2017-05-05T10:39:36.909Z,46.81
2017-05-05T10:40:47.192Z,46.55
2017-05-05T10:41:57.456Z,46.36
2017-05-05T10:43:07.413Z,46.45
2017-05-05T10:44:17.365Z,46.55
2017-05-05T10:45:27.329Z,47.13
2017-05-05T10:46:37.599Z,46.84
2017-05-05T10:47:47.865Z,48.28
2017-05-05T10:48:57.846Z,47.22
2017-05-05T10:50:07.489Z,46.17
2017-05-05T10:51:17.447Z,46.65
2017-05-05T10:52:27.721Z,45.88
2017-05-05T10:53:37.675Z,46.65
2017-05-05T10:54:47.944Z,46.74
2017-05-05T10:55:58.216Z,46.45
2017-05-05T10:57:08.170Z,46.65
2017-05-05T10:58:18.125Z,45.68
2017-05-05T10:59:28.403Z,45.71
2017-05-05T11:00:38.670Z,44.94
2017-05-05T11:01:48.626Z,45.52
2017-05-05T11:02:58.899Z,45.14
2017-05-05T11:04:09.175Z,45.32
2017-05-05T11:05:19.128Z,45.42
2017-05-05T11:06:29.087Z,45.81
2017-05-05T11:07:39.362Z,45.42
2017-05-05T11:08:49.650Z,44.84
2017-05-05T11:09:59.928Z,46.48
2017-05-05T11:11:10.199Z,46.38
2017-05-05T11:12:20.155Z,45.23
2017-05-05T11:13:30.427Z,46
2017-05-05T11:14:40.392Z,45.42
2017-05-05T11:15:50.665Z,46
2017-05-05T11:17:00.937Z,46.55
2017-05-05T11:18:10.579Z,45.98
2017-05-05T11:19:20.535Z,46.26
2017-05-05T11:20:30.801Z,46.17
2017-05-05T11:21:41.071Z,45.32
2017-05-05T11:22:51.336Z,44.2
2017-05-05T11:24:01.322Z,43.74
2017-05-05T11:25:11.589Z,42.89
2017-05-05T11:26:21.305Z,42.12
2017-05-05T11:27:31.579Z,41.08
2017-05-05T11:28:41.851Z,40.7
2017-05-05T11:29:52.121Z,40.72
2017-05-05T11:31:02.085Z,39.49
2017-05-05T11:32:12.045Z,38.54
2017-05-05T11:33:22.346Z,36.94
2017-05-05T11:34:32.632Z,36.38
2017-05-05T11:35:42.591Z,36.38
2017-05-05T11:36:52.556Z,35.72
2017-05-05T11:38:02.520Z,33.44
2017-05-05T11:39:12.825Z,34.41
2017-05-05T11:40:23.101Z,34.6
2017-05-05T11:41:33.060Z,33.15
2017-05-05T11:42:43.336Z,33.25
2017-05-05T11:43:53.620Z,33.62
2017-05-05T11:45:03.922Z,34.08
2017-05-05T11:46:13.913Z,33.98
2017-05-05T11:47:23.882Z,34.38
2017-05-05T11:48:33.541Z,34.47
2017-05-05T11:49:43.825Z,34.74
2017-05-05T11:50:53.796Z,34.47
2017-05-05T11:52:04.076Z,34
2017-05-05T11:53:14.356Z,33.33
2017-05-05T11:54:24.642Z,34
2017-05-05T11:55:34.608Z,32.65
2017-05-05T11:56:44.575Z,32.1
2017-05-05T11:57:54.862Z,31.54
2017-05-05T11:59:05.165Z,31.56
2017-05-05T12:00:15.442Z,32.1
2017-05-05T12:01:25.725Z,32.76
2017-05-05T12:02:35.383Z,33.05
2017-05-05T12:03:45.668Z,31.71
2017-05-05T12:04:55.645Z,30.39
2017-05-05T12:06:05.930Z,30.29
2017-05-05T12:07:14.962Z,29.83
2017-05-05T12:08:24.619Z,30.34
2017-05-05T12:09:34.267Z,28.79
2017-05-05T12:10:44.556Z,29.57
2017-05-05T12:11:54.527Z,29.81
2017-05-05T12:13:04.819Z,29.63
2017-05-05T12:14:14.472Z,28.4
2017-05-05T12:15:24.435Z,27.26
2017-05-05T12:16:34.399Z,26.79
2017-05-05T12:17:44.686Z,26.89
2017-05-05T12:18:54.972Z,25.64
2017-05-05T12:20:04.944Z,25.18
2017-05-05T12:21:14.604Z,25.27
2017-05-05T12:22:24.273Z,24.69
2017-05-05T12:23:34.564Z,24.51
2017-05-05T12:24:44.850Z,25.26
2017-05-05T12:25:54.829Z,26.11
2017-05-05T12:27:05.117Z,25.82
2017-05-05T12:28:15.408Z,26.39
2017-05-05T12:29:25.690Z,24.58
2017-05-05T12:30:35.972Z,23.91
2017-05-05T12:31:46.256Z,24.29
2017-05-05T12:32:55.914Z,25.32
2017-05-05T12:34:06.201Z,25.21
2017-05-05T12:35:16.168Z,26.37
2017-05-05T12:36:25.823Z,26.63
2017-05-05T12:37:36.122Z,26.46
2017-05-05T12:38:46.405Z,26.64
2017-05-05T12:39:56.382Z,26.92
2017-05-05T12:41:06.354Z,25.37
2017-05-05T12:42:16.633Z,26.92
2017-05-05T12:43:26.598Z,25.37
2017-05-05T12:44:36.579Z,25.48
2017-05-05T12:45:46.549Z,24.9
2017-05-05T12:46:56.522Z,24.52
2017-05-05T12:48:06.808Z,24.33
2017-05-05T12:49:17.117Z,23.76
2017-05-05T12:50:27.399Z,23.66
2017-05-05T12:51:37.367Z,23.48
2017-05-05T12:52:47.650Z,23.19
2017-05-05T12:53:57.943Z,22.99
2017-05-05T12:55:08.224Z,23.3
2017-05-05T12:56:18.503Z,22.35
2017-05-05T12:57:28.793Z,20.81
2017-05-05T12:58:38.763Z,20.25
2017-05-05T12:59:48.733Z,19.2
2017-05-05T13:00:58.697Z,18.91
2017-05-05T13:02:08.983Z,17.76
2017-05-05T13:03:18.957Z,16.98
2017-05-05T13:04:29.243Z,17.58
2017-05-05T13:05:39.535Z,17.4
2017-05-05T13:06:49.504Z,17.02
2017-05-05T13:07:59.792Z,16.73
2017-05-05T13:09:09.764Z,15.95
2017-05-05T13:10:19.738Z,16.16
2017-05-05T13:11:30.027Z,16.06
2017-05-05T13:12:40.333Z,16.17
2017-05-05T13:13:50.621Z,16.27
2017-05-05T13:15:00.274Z,15.89
2017-05-05T13:16:10.567Z,14.23
2017-05-05T13:17:20.855Z,14.73
2017-05-05T13:18:31.140Z,14.54
2017-05-05T13:19:41.428Z,13.96
2017-05-05T13:20:51.715Z,12.79
2017-05-05T13:22:01.687Z,13.37
2017-05-05T13:23:11.663Z,12.88
2017-05-05T13:24:21.949Z,13.28
2017-05-05T13:25:32.245Z,12.29
2017-05-05T13:26:42.535Z,13.54
2017-05-05T13:27:52.823Z,14.4
2017-05-05T13:29:03.109Z,16.13
2017-05-05T13:30:13.077Z,15.25
2017-05-05T13:31:23.363Z,15.05
2017-05-05T13:32:33.663Z,15.92
2017-05-05T13:33:43.954Z,16.41
2017-05-05T13:34:54.255Z,15.93
2017-05-05T13:36:04.544Z,15.83
2017-05-05T13:37:14.824Z,16.03
2017-05-05T13:38:24.797Z,14.48
2017-05-05T13:39:35.090Z,15.16
2017-05-05T13:40:45.062Z,14.47
2017-05-05T13:41:55.360Z,14.87
2017-05-05T13:43:05.677Z,14.67
2017-05-05T13:44:15.966Z,15.92
2017-05-05T13:45:26.256Z,16.85
2017-05-05T13:46:36.545Z,17.03
2017-05-05T13:47:46.829Z,16.86
2017-05-05T13:48:56.810Z,17.35
2017-05-05T13:50:07.111Z,16.68
2017-05-05T13:51:17.083Z,16.41
2017-05-05T13:52:27.058Z,16.02
2017-05-05T13:53:37.348Z,16.11
2017-05-05T13:54:47.645Z,15.82
2017-05-05T13:55:57.934Z,16.29
2017-05-05T13:57:07.908Z,16.48
2017-05-05T13:58:17.904Z,16.86
2017-05-05T13:59:27.567Z,17.52
2017-05-05T14:00:37.537Z,17.9
2017-05-05T14:01:47.510Z,18.95
2017-05-05T14:02:57.508Z,19.89
2017-05-05T14:04:07.794Z,20.67
2017-05-05T14:05:18.078Z,20.27
2017-05-05T14:06:28.364Z,20.94
2017-05-05T14:07:38.327Z,20.46
2017-05-05T14:08:48.615Z,20.94
2017-05-05T14:09:58.898Z,20.26
2017-05-05T14:11:09.184Z,21.61
2017-05-05T14:12:19.466Z,21.13
2017-05-05T14:13:29.752Z,21.51
2017-05-05T14:14:40.036Z,21.33
2017-05-05T14:15:50.317Z,20.95
2017-05-05T14:17:00.598Z,19.8
2017-05-05T14:18:10.579Z,18.95
2017-05-05T14:19:20.547Z,18.29
2017-05-05T14:20:30.834Z,18.58
2017-05-05T14:21:41.121Z,17.52
2017-05-05T14:22:51.404Z,16.86
2017-05-05T14:24:01.686Z,16.78
2017-05-05T14:25:11.656Z,15.92
2017-05-05T14:26:21.937Z,15.34
2017-05-05T14:27:32.221Z,15.73
2017-05-05T14:28:42.506Z,15.16
2017-05-05T14:29:52.796Z,14.97
2017-05-05T14:31:03.084Z,14.19
2017-05-05T14:32:13.376Z,14.39
2017-05-05T14:33:23.661Z,14.49
2017-05-05T14:34:33.633Z,13.81
2017-05-05T14:35:43.916Z,12.74
2017-05-05T14:36:54.200Z,12.94
2017-05-05T14:38:04.485Z,13.23
2017-05-05T14:39:14.768Z,12.84
2017-05-05T14:40:24.744Z,13.23
2017-05-05T14:41:35.057Z,13.81
2017-05-05T14:42:45.334Z,13.61
2017-05-05T14:43:55.307Z,13.51
2017-05-05T14:45:05.314Z,13.13
2017-05-05T14:46:15.601Z,12.55
2017-05-05T14:47:25.884Z,12.16
2017-05-05T14:48:36.166Z,12.07
2017-05-05T14:49:46.452Z,12.35
2017-05-05T14:50:56.732Z,11.77
2017-05-05T14:52:07.018Z,12.25
2017-05-05T14:54:44.789Z,14.55
2017-05-05T14:55:54.763Z,15.89
2017-05-05T14:57:05.047Z,15.97
2017-05-05T14:58:14.703Z,14.92
2017-05-05T14:59:27.264Z,15.03
2017-05-05T15:00:37.551Z,16.29
2017-05-05T15:01:47.842Z,15.89
2017-05-05T15:02:58.121Z,15.8
2017-05-05T15:04:08.405Z,15.21
2017-05-05T15:05:20.629Z,15.41
2017-05-05T15:06:30.918Z,14.93
2017-05-05T15:07:41.205Z,15.31